»·PEaware :: WAT390 KTEX-KASE

WAT390 :: KTEX-KASE

FLIGHT INFORMATION

Flight Status: Arrived
Operator:
Walker Air Transport
More flights by this operator :: More flights under this callsign
Pilot: Ewen S. (18928)
Aircraft: EMBRAER XINGU
(E121)
More flights by this aircraft type
Origin: KTEX Telluride Regl
United States
Destination: KASE Aspen-Pitkin Co/Sardy
United States
More flights between these airports :: More routes between these airports
Route: ETL V68 MTJ V361 DBL
File this flight plan on PilotEdge
Remarks:
Altitude:
(Current/Filed)
19,000ft
Speed:
(Current/Filed)
230kts
Departed: 24-Aug-23 12:55 PM
Arrived: 24-Aug-23 01:40 PM
Distance/Time
Traveled:
90nm/0:45
Distance/Time
To Go:
Arrived

Flight Plot

Page will automatically refresh every two minutes.


Map Options




Map Legend


Flown Route
Filed Route
Departure Airport
Arrival Airport
Navaid (VOR, NDB)
Fix

Horizontal Profiles

Position Reports

Time Latitude Longitude Heading Altitude Ground
Speed
24-Aug-23 12:24 37.954017 -107.901294 14 9054ft 0kts
24-Aug-23 12:25 37.954017 -107.901294 14 9054ft 0kts
24-Aug-23 12:26 37.954017 -107.901294 14 9054ft 0kts
24-Aug-23 12:27 37.954017 -107.901294 14 9054ft 0kts
24-Aug-23 12:28 37.954017 -107.901294 14 9054ft 0kts
24-Aug-23 12:29 37.954017 -107.901294 14 9054ft 0kts
24-Aug-23 12:30 37.954017 -107.901294 14 9054ft 0kts
24-Aug-23 12:31 37.954017 -107.901294 14 9054ft 0kts
24-Aug-23 12:32 37.954017 -107.901294 14 9054ft 0kts
24-Aug-23 12:33 37.954017 -107.901294 14 9054ft 0kts
24-Aug-23 12:34 37.954017 -107.901294 14 9054ft 0kts
24-Aug-23 12:35 37.954017 -107.901294 14 9054ft 0kts
24-Aug-23 12:36 37.954017 -107.901294 14 9054ft 0kts
24-Aug-23 12:37 37.954017 -107.901294 14 9054ft 0kts
24-Aug-23 12:38 37.954017 -107.901294 14 9063ft 0kts
24-Aug-23 12:39 37.954017 -107.901294 14 9063ft 0kts
24-Aug-23 12:40 37.954017 -107.901294 14 9063ft 0kts
24-Aug-23 12:41 37.954017 -107.901294 14 9063ft 0kts
24-Aug-23 12:42 37.954017 -107.901294 14 9063ft 0kts
24-Aug-23 12:43 37.954017 -107.901294 14 9063ft 0kts
24-Aug-23 12:44 37.954017 -107.901294 14 9063ft 0kts
24-Aug-23 12:45 37.954017 -107.901294 14 9063ft 0kts
24-Aug-23 12:46 37.954017 -107.901294 14 9063ft 0kts
24-Aug-23 12:47 37.954017 -107.901294 14 9063ft 0kts
24-Aug-23 12:48 37.954017 -107.901294 14 9063ft 0kts
24-Aug-23 12:49 37.954017 -107.901294 14 9063ft 0kts
24-Aug-23 12:50 37.953964 -107.901536 223 9057ft 9kts
24-Aug-23 12:51 37.953250 -107.899149 84 9060ft 0kts
24-Aug-23 12:52 37.953250 -107.899149 84 9060ft 0kts
24-Aug-23 12:53 37.951920 -107.896693 193 9072ft 19kts
24-Aug-23 12:54 37.954248 -107.911699 286 9209ft 130kts
24-Aug-23 12:55 37.967202 -107.968247 288 10254ft 181kts
24-Aug-23 12:56 37.983648 -108.029655 288 11319ft 186kts
24-Aug-23 12:57 37.999376 -108.092458 285 12376ft 187kts
24-Aug-23 12:58 38.014728 -108.154621 285 13514ft 185kts
24-Aug-23 12:59 38.030767 -108.216741 298 14541ft 194kts
24-Aug-23 13:00 38.077381 -108.230169 34 15607ft 186kts
24-Aug-23 13:01 38.121876 -108.196045 35 16746ft 187kts
24-Aug-23 13:02 38.166741 -108.161567 35 17926ft 190kts
24-Aug-23 13:03 38.213373 -108.125710 35 19012ft 203kts
24-Aug-23 13:04 38.266192 -108.084905 34 19113ft 237kts
24-Aug-23 13:05 38.323703 -108.040638 34 19153ft 242kts
24-Aug-23 13:06 38.381335 -107.996010 34 19196ft 242kts
24-Aug-23 13:07 38.438844 -107.951472 34 19247ft 242kts
24-Aug-23 13:08 38.496412 -107.906742 33 19208ft 241kts
24-Aug-23 13:09 38.557008 -107.868991 27 19210ft 243kts
24-Aug-23 13:10 38.618088 -107.832498 27 19185ft 243kts
24-Aug-23 13:11 38.679549 -107.795819 27 19135ft 243kts
24-Aug-23 13:12 38.735214 -107.749207 46 19072ft 240kts
24-Aug-23 13:13 38.783657 -107.690686 46 19055ft 239kts
24-Aug-23 13:14 38.832671 -107.631880 46 19040ft 244kts
24-Aug-23 13:15 38.882006 -107.572708 46 19026ft 243kts
24-Aug-23 13:16 38.931567 -107.513036 46 19034ft 242kts
24-Aug-23 13:17 38.980656 -107.453325 46 19016ft 244kts
24-Aug-23 13:18 39.033176 -107.390185 46 17275ft 241kts
24-Aug-23 13:19 39.079124 -107.334725 47 17135ft 218kts
24-Aug-23 13:20 39.122534 -107.281990 47 17135ft 213kts
24-Aug-23 13:21 39.165950 -107.229195 47 17184ft 215kts
24-Aug-23 13:22 39.208811 -107.176909 47 17234ft 213kts
24-Aug-23 13:23 39.252081 -107.124106 47 17148ft 218kts
24-Aug-23 13:24 39.301001 -107.063857 46 14468ft 244kts
24-Aug-23 13:25 39.344364 -107.010849 47 14085ft 205kts
24-Aug-23 13:26 39.386192 -106.959429 46 13770ft 206kts
24-Aug-23 13:27 39.427234 -106.909210 44 13690ft 199kts
24-Aug-23 13:28 39.481243 -106.899796 357 13709ft 205kts
24-Aug-23 13:29 39.537784 -106.905616 356 13764ft 204kts
24-Aug-23 13:30 39.590117 -106.926947 288 13768ft 207kts
24-Aug-23 13:31 39.557463 -106.958269 142 13782ft 192kts
24-Aug-23 13:32 39.522021 -106.906521 156 13755ft 194kts
24-Aug-23 13:33 39.470058 -106.898076 173 13699ft 180kts
24-Aug-23 13:34 39.420988 -106.892767 173 13724ft 178kts
24-Aug-23 13:35 39.369954 -106.887540 174 13300ft 187kts
24-Aug-23 13:36 39.322285 -106.882523 174 12554ft 153kts
24-Aug-23 13:37 39.282792 -106.881912 186 10488ft 138kts
24-Aug-23 13:38 39.245672 -106.879545 161 7950ft 108kts
24-Aug-23 13:39 39.221740 -106.868160 160 7764ft 38kts
24-Aug-23 13:40 39.219902 -106.866087 158 7780ft 2kts
24-Aug-23 13:41 39.219484 -106.865109 74 7788ft 0kts
24-Aug-23 13:42 39.219484 -106.865109 74 7788ft 0kts

Navigation Log

Ident Type
Flight plan parsing failed, navigation log unavailable